Terminal Aerodrome Forecast
Issued by NWS

Home | Current Version | Previous Version | Text Only | Print | Product List | Glossary On
Versions: 1 2 3 4 5 6 7 8 9 10 11 12 13 14 15 16 17 18 19 20 21 22 23 24 25 26 27 28 29 30
526
FTUS44 KFWD 280300 AAB
TAFGKY
TAF AMD
KGKY 280300Z 2803/2824 10008KT P6SM VCSH BKN080
     FM280400 12008KT P6SM SCT250
     FM281100 18008KT P6SM SCT015
      TEMPO 2812/2815 BKN015
     FM281600 18012KT P6SM SCT035 BKN300=

USA.gov is the U.S. government's official web portal to all federal, state and local government web resources and services.